Time;durP1;ratioP1;P1;durP2;ratioP2;P2;SDS_P1;SDS_P2;PMS_P1;PMS_P2;Temp;Humidity;BMP_temperature;BMP_pressure;BME280_temperature;BME280_humidity;BME280_pressure;Samples;Min_cycle;Max_cycle;Signal;HPM_P1;HPM_P2
2022/01/23 00:00:19;;;;;;;39.33;15.60;;;;;;;3.71;100.00;102457.66;7401621;19;20018;-67
2022/01/23 00:02:48;;;;;;;37.65;16.08;;;;;;;3.72;100.00;102459.44;7401206;19;20022;-67
2022/01/23 00:05:23;;;;;;;38.60;17.55;;;;;;;3.74;100.00;102467.28;7400973;19;20010;-67
2022/01/23 00:07:52;;;;;;;40.20;16.67;;;;;;;3.74;100.00;102473.38;7399062;19;20019;-68
2022/01/23 00:10:20;;;;;;;32.30;15.07;;;;;;;3.76;100.00;102460.44;7400868;19;20048;-67
2022/01/23 00:12:53;;;;;;;34.72;15.32;;;;;;;3.77;100.00;102466.50;7400945;19;20037;-68
2022/01/23 00:18:02;;;;;;;34.63;15.05;;;;;;;3.77;100.00;102470.00;7398625;19;20036;-67
2022/01/23 00:20:33;;;;;;;36.75;15.80;;;;;;;3.77;100.00;102461.28;7400123;19;20491;-67
2022/01/23 00:23:15;;;;;;;36.60;15.07;;;;;;;3.78;100.00;102463.06;7400901;19;20349;-67
2022/01/23 00:31:05;;;;;;;33.85;14.95;;;;;;;3.78;100.00;102473.44;7400010;19;20491;-68
2022/01/23 00:33:34;;;;;;;32.00;14.95;;;;;;;3.78;100.00;102476.94;7400019;19;20041;-67
2022/01/23 00:36:06;;;;;;;31.15;14.05;;;;;;;3.79;100.00;102486.50;7399404;19;20036;-67
2022/01/23 00:38:34;;;;;;;28.98;14.32;;;;;;;3.80;100.00;102489.97;7400288;19;20014;-67
2022/01/23 00:41:02;;;;;;;27.02;13.82;;;;;;;3.80;100.00;102497.78;7399421;19;20505;-67
2022/01/23 00:43:32;;;;;;;28.75;14.38;;;;;;;3.83;100.00;102503.06;7399780;19;20014;-67
2022/01/23 00:46:09;;;;;;;33.63;14.18;;;;;;;3.84;100.00;102503.13;7399639;19;20010;-68
2022/01/23 00:48:42;;;;;;;29.15;14.48;;;;;;;3.86;100.00;102488.47;7400045;19;20114;-67
2022/01/23 00:51:19;;;;;;;26.98;13.80;;;;;;;3.87;100.00;102494.56;7399778;19;20024;-67
2022/01/23 00:53:47;;;;;;;26.25;12.85;;;;;;;3.88;100.00;102496.31;7399915;19;20037;-68
2022/01/23 00:56:16;;;;;;;27.60;13.80;;;;;;;3.87;100.00;102487.63;7398633;19;20018;-69
2022/01/23 00:58:44;;;;;;;25.85;13.63;;;;;;;3.87;100.00;102482.44;7396457;19;20015;-67
2022/01/23 01:01:12;;;;;;;25.65;13.05;;;;;;;3.86;100.00;102470.28;7399201;19;20031;-67
2022/01/23 01:03:41;;;;;;;23.83;12.95;;;;;;;3.87;100.00;102476.38;7399071;19;20011;-67
2022/01/23 01:06:09;;;;;;;23.80;13.10;;;;;;;3.86;100.00;102478.06;7398417;19;20480;-67
2022/01/23 01:08:41;;;;;;;24.48;12.75;;;;;;;3.85;100.00;102481.50;7398566;19;20018;-67
2022/01/23 01:11:30;;;;;;;22.52;13.00;;;;;;;3.84;100.00;102473.66;7398578;19;20504;-67
2022/01/23 01:14:20;;;;;;;21.73;11.43;;;;;;;3.83;100.00;102470.19;7398534;19;20392;-68
2022/01/23 01:16:58;;;;;;;19.85;11.43;;;;;;;3.81;100.00;102465.78;7397792;19;20090;-68
2022/01/23 01:30:34;;;;;;;22.42;11.77;;;;;;;3.71;100.00;102470.66;7393953;19;20467;-67
2022/01/23 01:33:12;;;;;;;20.48;10.68;;;;;;;3.71;100.00;102465.44;7398707;19;20011;-66
2022/01/23 01:35:46;;;;;;;20.73;11.27;;;;;;;3.69;100.00;102464.53;7397881;19;20491;-67
2022/01/23 01:38:15;;;;;;;22.48;11.93;;;;;;;3.68;100.00;102462.75;7396135;19;20023;-67
2022/01/23 01:40:46;;;;;;;20.50;11.18;;;;;;;3.68;100.00;102465.38;7397870;19;20041;-67
2022/01/23 01:43:14;;;;;;;25.20;12.07;;;;;;;3.68;100.00;102473.16;7397495;19;20482;-67
2022/01/23 01:45:43;;;;;;;23.15;11.38;;;;;;;3.67;100.00;102463.59;7397288;19;20014;-67
2022/01/23 01:48:13;;;;;;;24.73;12.65;;;;;;;3.68;100.00;102454.09;7396041;19;20021;-67
2022/01/23 01:50:45;;;;;;;20.88;10.77;;;;;;;3.67;100.00;102458.41;7398255;19;20039;-68
2022/01/23 01:53:14;;;;;;;23.70;12.15;;;;;;;3.68;100.00;102462.75;7397806;19;20014;-67
2022/01/23 01:55:49;;;;;;;23.50;11.82;;;;;;;3.65;100.00;102466.97;7397405;19;20019;-67
2022/01/23 01:58:34;;;;;;;23.30;11.82;;;;;;;3.68;100.00;102470.56;7395469;19;20022;-68
2022/01/23 02:01:11;;;;;;;22.70;10.75;;;;;;;3.68;100.00;102486.13;7396959;19;20412;-68
2022/01/23 02:09:07;;;;;;;21.85;10.68;;;;;;;3.62;100.00;102501.47;7395905;19;20066;-67
2022/01/23 02:11:58;;;;;;;;;;;;;;;3.61;100.00;102515.28;7397493;19;20383;-68
2022/01/23 02:14:37;;;;;;;21.77;10.93;;;;;;;3.57;100.00;102506.50;7398285;19;20351;-67
2022/01/23 02:17:18;;;;;;;20.33;10.15;;;;;;;3.57;100.00;102509.09;7395418;19;20535;-67
2022/01/23 02:22:52;;;;;;;19.42;10.55;;;;;;;3.57;100.00;102505.63;7398029;19;20011;-68
2022/01/23 02:50:33;;;;;;;19.98;10.60;;;;;;;3.55;100.00;102497.81;7396820;19;20037;-68
2022/01/23 02:52:55;;;;;;;20.02;10.75;;;;;;;3.55;100.00;102486.50;7392691;19;20006;-67
2022/01/23 02:55:28;;;;;;;17.13;9.13;;;;;;;3.55;100.00;102497.81;7395843;19;20041;-68
2022/01/23 02:57:59;;;;;;;17.10;8.48;;;;;;;3.55;100.00;102491.72;7393606;19;20480;-68
2022/01/23 03:00:34;;;;;;;17.63;8.82;;;;;;;3.55;100.00;102494.31;7395784;19;20384;-66
2022/01/23 03:03:08;;;;;;;15.40;8.70;;;;;;;3.55;100.00;102495.19;7395845;19;20011;-66
2022/01/23 03:05:39;;;;;;;15.90;8.98;;;;;;;3.56;100.00;102498.66;7395253;19;20515;-66
2022/01/23 03:08:25;;;;;;;15.48;8.70;;;;;;;3.54;100.00;102498.63;7393825;19;20015;-66
2022/01/23 03:11:06;;;;;;;16.85;9.20;;;;;;;3.53;100.00;102499.44;7395488;19;20022;-66
2022/01/23 03:13:47;;;;;;;15.00;8.27;;;;;;;3.53;100.00;102503.75;7395469;19;20014;-67
2022/01/23 03:24:32;;;;;;;13.63;8.02;;;;;;;3.55;100.00;102491.72;7402704;19;20129;-66
2022/01/23 03:27:26;;;;;;;15.55;8.45;;;;;;;3.57;100.00;102500.44;7401448;19;20359;-66
2022/01/23 03:30:02;;;;;;;12.77;8.10;;;;;;;3.56;100.00;102506.47;7401810;19;20038;-66
2022/01/23 03:32:36;;;;;;;16.20;7.95;;;;;;;3.57;100.00;102501.31;7402310;19;20014;-67
2022/01/23 03:35:06;;;;;;;12.88;7.57;;;;;;;3.60;100.00;102500.53;7403787;19;20018;-67
2022/01/23 03:37:34;;;;;;;15.23;7.53;;;;;;;3.61;100.00;102502.31;7399820;19;20022;-70
2022/01/23 03:40:02;;;;;;;20.77;8.25;;;;;;;3.62;100.00;102501.47;7398973;19;20018;-66
2022/01/23 03:42:36;;;;;;;15.02;6.97;;;;;;;3.62;100.00;102504.09;7401840;19;20006;-66
2022/01/23 03:45:26;;;;;;;15.90;7.32;;;;;;;3.63;100.00;102508.44;7402246;19;20044;-66
2022/01/23 03:49:30;;;;;;;13.38;7.43;;;;;;;3.64;100.00;102491.16;7399512;19;20029;-66
2022/01/23 03:50:42;;;;;;;13.95;7.82;;;;;;;3.65;100.00;102503.31;7401072;19;20498;-66
2022/01/23 03:53:10;;;;;;;17.65;7.82;;;;;;;3.66;100.00;102499.88;7398771;19;20018;-66
2022/01/23 03:55:38;;;;;;;12.98;7.28;;;;;;;3.65;100.00;102508.50;7401391;19;20040;-66
2022/01/23 03:58:09;;;;;;;14.98;7.30;;;;;;;3.66;100.00;102511.13;7398841;19;20019;-65
2022/01/23 04:00:38;;;;;;;15.02;7.45;;;;;;;3.67;100.00;102522.44;7401764;19;20015;-66
2022/01/23 04:03:06;;;;;;;13.20;7.72;;;;;;;3.65;100.00;102519.78;7401093;19;20018;-65
2022/01/23 04:05:35;;;;;;;14.02;7.40;;;;;;;3.68;100.00;102519.88;7400993;19;20015;-65
2022/01/23 04:08:04;;;;;;;14.43;8.02;;;;;;;3.67;100.00;102512.91;7398055;19;20489;-66
2022/01/23 04:10:32;;;;;;;16.13;8.25;;;;;;;3.67;100.00;102510.31;7400816;19;20044;-66
2022/01/23 04:13:12;;;;;;;12.73;7.20;;;;;;;3.68;100.00;102516.41;7400749;19;20044;-66
2022/01/23 04:15:48;;;;;;;12.65;7.30;;;;;;;3.67;100.00;102510.31;7400591;19;20014;-66
2022/01/23 04:21:19;;;;;;;14.50;7.65;;;;;;;3.69;100.00;102511.25;7396461;19;20019;-66
2022/01/23 04:32:03;;;;;;;14.07;7.57;;;;;;;3.69;100.00;102525.94;7399751;19;20100;-66
2022/01/23 04:34:37;;;;;;;12.20;6.78;;;;;;;3.69;100.00;102523.34;7400520;19;20025;-65
2022/01/23 04:45:23;;;;;;;13.02;7.35;;;;;;;3.68;100.00;102545.84;7399930;19;20006;-66
2022/01/23 05:01:35;;;;;;;14.68;8.15;;;;;;;3.69;100.00;102555.41;7399858;19;20022;-66
2022/01/23 05:04:15;;;;;;;15.27;8.13;;;;;;;3.69;100.00;102554.50;7399678;19;20036;-66
2022/01/23 05:06:46;;;;;;;14.60;8.68;;;;;;;3.65;100.00;102556.13;7398745;19;20036;-66
2022/01/23 05:09:16;;;;;;;18.67;9.45;;;;;;;3.67;100.00;102558.78;7399508;19;20019;-66
2022/01/23 05:11:49;;;;;;;18.25;9.57;;;;;;;3.65;100.00;102569.09;7398841;19;20037;-66
2022/01/23 05:14:25;;;;;;;15.60;8.55;;;;;;;3.64;100.00;102559.53;7399144;19;20070;-66
2022/01/23 05:16:54;;;;;;;15.57;8.77;;;;;;;3.64;100.00;102563.84;7398068;19;20011;-66
2022/01/23 05:19:25;;;;;;;15.20;8.80;;;;;;;3.64;100.00;102563.84;7398316;19;20501;-66
2022/01/23 05:24:44;;;;;;;14.65;8.40;;;;;;;3.63;100.00;102575.03;7396573;19;20014;-66
2022/01/23 05:27:13;;;;;;;16.67;8.77;;;;;;;3.63;100.00;102575.03;7397559;19;20010;-66
2022/01/23 05:29:42;;;;;;;18.92;9.07;;;;;;;3.63;100.00;102577.63;7398339;19;20018;-65
2022/01/23 05:32:12;;;;;;;15.35;8.02;;;;;;;3.63;100.00;102575.03;7398741;19;20030;-66
2022/01/23 05:34:45;;;;;;;16.23;8.27;;;;;;;3.62;100.00;102578.47;7398970;19;20018;-66
2022/01/23 05:37:19;;;;;;;17.50;7.95;;;;;;;3.62;100.00;102584.56;7397030;19;20023;-65
2022/01/23 05:39:48;;;;;;;16.05;7.28;;;;;;;3.62;100.00;102591.47;7398322;19;20011;-65
2022/01/23 05:42:16;;;;;;;16.35;8.60;;;;;;;3.63;100.00;102590.59;7398017;19;20040;-66
2022/01/23 05:44:45;;;;;;;17.83;8.35;;;;;;;3.62;100.00;102599.25;7396056;19;20031;-66
2022/01/23 05:47:14;;;;;;;16.80;8.23;;;;;;;3.61;100.00;102590.56;7396564;19;20019;-65
2022/01/23 05:49:45;;;;;;;17.52;8.52;;;;;;;3.62;100.00;102596.66;7397524;19;20011;-66
2022/01/23 05:52:13;;;;;;;18.13;9.23;;;;;;;3.62;100.00;102596.66;7397007;19;20034;-66
2022/01/23 05:54:41;;;;;;;15.65;7.63;;;;;;;3.62;100.00;102594.06;7397446;19;20043;-66
2022/01/23 05:57:10;;;;;;;15.77;7.97;;;;;;;3.62;100.00;102594.94;7396310;19;20018;-66
2022/01/23 05:59:38;;;;;;;16.90;7.93;;;;;;;3.59;100.00;102593.09;7397078;19;20422;-66
2022/01/23 06:02:07;;;;;;;16.60;8.13;;;;;;;3.59;100.00;102592.25;7396961;19;20487;-66
2022/01/23 06:04:35;;;;;;;17.08;7.85;;;;;;;3.59;100.00;102589.63;7397234;19;20040;-66
2022/01/23 06:07:06;;;;;;;16.73;8.52;;;;;;;3.57;100.00;102588.69;7396280;19;20040;-66
2022/01/23 06:09:41;;;;;;;17.38;8.30;;;;;;;3.56;100.00;102580.03;7397474;19;20036;-66
2022/01/23 06:12:11;;;;;;;17.95;8.48;;;;;;;3.57;100.00;102586.09;7396924;19;20018;-66
2022/01/23 06:14:39;;;;;;;15.75;7.00;;;;;;;3.57;100.00;102581.78;7396483;19;20018;-66
2022/01/23 06:17:07;;;;;;;16.58;7.78;;;;;;;3.57;100.00;102584.38;7395931;19;20023;-66
2022/01/23 06:19:37;;;;;;;15.00;7.82;;;;;;;3.60;100.00;102586.19;7394826;19;20015;-66
2022/01/23 06:22:08;;;;;;;14.60;7.53;;;;;;;3.60;100.00;102586.19;7396705;19;20018;-66
2022/01/23 06:24:44;;;;;;;15.88;7.50;;;;;;;3.60;100.00;102583.59;7396224;19;20040;-66
2022/01/23 06:27:12;;;;;;;14.50;7.63;;;;;;;3.60;100.00;102588.78;7396217;19;20018;-66
2022/01/23 06:29:40;;;;;;;11.93;6.90;;;;;;;3.61;100.00;102590.56;7396467;19;20037;-66
2022/01/23 06:32:10;;;;;;;13.68;7.32;;;;;;;3.61;100.00;102587.97;7395819;19;20377;-66
2022/01/23 06:34:38;;;;;;;15.00;7.60;;;;;;;3.61;100.00;102584.50;7396144;19;20040;-65
2022/01/23 06:37:09;;;;;;;15.00;7.60;;;;;;;3.61;100.00;102585.38;7395247;19;20030;-66
2022/01/23 06:39:37;;;;;;;15.77;8.27;;;;;;;3.61;100.00;102589.69;7394290;19;20014;-66
2022/01/23 06:42:06;;;;;;;14.98;8.07;;;;;;;3.61;100.00;102589.69;7395911;19;20018;-66
2022/01/23 06:44:35;;;;;;;15.20;7.88;;;;;;;3.57;100.00;102593.88;7395745;19;20014;-66
2022/01/23 06:47:03;;;;;;;15.20;7.85;;;;;;;3.61;100.00;102602.66;7394978;19;20036;-66
2022/01/23 06:49:31;;;;;;;15.00;8.52;;;;;;;3.61;100.00;102608.72;7395371;19;20509;-66
2022/01/23 06:51:59;;;;;;;14.25;8.18;;;;;;;3.59;100.00;102613.00;7394136;19;20383;-66
2022/01/23 06:54:31;;;;;;;15.60;8.95;;;;;;;3.59;100.00;102620.78;7395861;19;20018;-66
2022/01/23 06:56:59;;;;;;;15.32;7.70;;;;;;;3.61;100.00;102629.50;7394827;19;20022;-66
2022/01/23 06:59:27;;;;;;;13.55;8.55;;;;;;;3.61;100.00;102626.91;7393707;19;20059;-66
2022/01/23 07:01:57;;;;;;;14.93;7.85;;;;;;;3.61;100.00;102633.81;7398322;19;20011;-66
2022/01/23 07:04:25;;;;;;;15.48;8.63;;;;;;;3.61;100.00;102642.47;7397851;19;20141;-67
2022/01/23 07:06:54;;;;;;;14.77;8.52;;;;;;;3.62;100.00;102644.25;7396546;19;20040;-67
2022/01/23 07:09:22;;;;;;;18.30;9.52;;;;;;;3.63;100.00;102645.13;7395306;19;20011;-67
2022/01/23 07:11:53;;;;;;;17.30;9.02;;;;;;;3.63;100.00;102653.81;7395129;19;20022;-67
2022/01/23 07:14:22;;;;;;;13.90;7.43;;;;;;;3.63;100.00;102646.03;7395054;19;20379;-67
2022/01/23 07:16:50;;;;;;;16.08;8.55;;;;;;;3.63;100.00;102648.63;7394227;19;20023;-67
2022/01/23 07:19:18;;;;;;;15.25;7.43;;;;;;;3.64;100.00;102650.41;7393477;19;20015;-68
2022/01/23 07:21:46;;;;;;;15.35;8.45;;;;;;;3.63;100.00;102658.09;7394766;19;20015;-67
2022/01/23 07:24:15;;;;;;;17.50;7.95;;;;;;;3.64;100.00;102654.69;7394735;19;20028;-67
2022/01/23 07:26:43;;;;;;;17.80;7.55;;;;;;;3.64;100.00;102653.00;7393688;19;20497;-66
2022/01/23 07:29:16;;;;;;;15.25;8.02;;;;;;;3.64;100.00;102655.59;7394604;19;20355;-67
2022/01/23 07:31:59;;;;;;;18.83;9.35;;;;;;;3.66;100.00;102661.69;7394881;19;20014;-67
2022/01/23 07:34:28;;;;;;;17.85;8.95;;;;;;;3.66;100.00;102661.69;7394605;19;20026;-67
2022/01/23 07:36:56;;;;;;;14.95;7.53;;;;;;;3.67;100.00;102663.47;7393310;19;20022;-66
2022/01/23 07:39:24;;;;;;;14.30;8.07;;;;;;;3.69;100.00;102666.13;7392803;19;20394;-67
2022/01/23 07:41:53;;;;;;;12.50;7.05;;;;;;;3.68;100.00;102666.97;7393710;19;20405;-66
2022/01/23 07:44:24;;;;;;;16.02;8.40;;;;;;;3.62;100.00;102670.22;7394115;19;20037;-66
2022/01/23 07:46:54;;;;;;;17.13;8.15;;;;;;;3.68;100.00;102673.03;7393672;19;20022;-66
2022/01/23 07:49:23;;;;;;;14.60;7.30;;;;;;;3.63;100.00;102669.38;7394069;19;20036;-66
2022/01/23 07:51:52;;;;;;;15.77;8.63;;;;;;;3.69;100.00;102679.09;7393104;19;20021;-66
2022/01/23 07:54:22;;;;;;;13.27;7.10;;;;;;;3.69;100.00;102674.81;7394340;19;20015;-66
2022/01/23 07:56:50;;;;;;;16.50;7.90;;;;;;;3.69;100.00;102685.19;7393398;19;20032;-66
2022/01/23 07:59:18;;;;;;;16.25;7.95;;;;;;;3.70;100.00;102688.66;7391960;19;20500;-66
2022/01/23 08:01:49;;;;;;;15.18;8.82;;;;;;;3.71;100.00;102686.13;7393712;19;20033;-66
2022/01/23 08:04:17;;;;;;;17.05;7.90;;;;;;;3.72;100.00;102693.09;7394101;19;20015;-65
2022/01/23 08:06:53;;;;;;;14.65;7.60;;;;;;;3.73;100.00;102688.81;7393469;19;20011;-65
2022/01/23 08:09:22;;;;;;;14.68;7.80;;;;;;;3.72;100.00;102693.09;7401324;19;20021;-65
2022/01/23 08:11:50;;;;;;;13.30;7.72;;;;;;;3.72;100.00;102693.09;7400767;19;20015;-65
2022/01/23 08:14:19;;;;;;;14.80;8.57;;;;;;;3.74;100.00;102693.13;7400803;19;20022;-65
2022/01/23 08:16:50;;;;;;;20.20;10.05;;;;;;;3.75;100.00;102695.81;7399601;19;20014;-64
2022/01/23 08:19:18;;;;;;;16.40;9.18;;;;;;;3.77;100.00;102701.06;7399415;19;20036;-66
2022/01/23 08:21:46;;;;;;;15.38;8.52;;;;;;;3.80;100.00;102700.28;7400443;19;20090;-65
2022/01/23 08:24:14;;;;;;;14.00;8.07;;;;;;;3.81;100.00;102705.53;7400533;19;20111;-65
2022/01/23 08:26:43;;;;;;;18.83;8.77;;;;;;;3.82;100.00;102709.03;7399434;19;20036;-66
2022/01/23 08:29:11;;;;;;;13.10;6.68;;;;;;;3.83;100.00;102705.59;7399782;19;20483;-67
2022/01/23 08:31:39;;;;;;;15.32;7.68;;;;;;;3.82;100.00;102704.72;7400213;19;20018;-66
2022/01/23 08:34:10;;;;;;;12.80;7.53;;;;;;;3.83;100.00;102705.59;7400082;19;20036;-67
2022/01/23 08:36:38;;;;;;;14.52;8.02;;;;;;;3.83;100.00;102703.91;7399026;19;20349;-66
2022/01/23 08:39:07;;;;;;;15.23;8.05;;;;;;;3.80;100.00;102693.38;7398536;19;20036;-66
2022/01/23 08:41:51;;;;;;;12.73;7.30;;;;;;;3.87;100.00;102710.09;7399723;19;20011;-67
2022/01/23 08:44:21;;;;;;;14.50;7.00;;;;;;;3.87;100.00;102692.78;7400000;19;20044;-66
2022/01/23 08:46:49;;;;;;;12.85;6.63;;;;;;;3.83;100.00;102685.72;7398825;19;20018;-66
2022/01/23 08:49:21;;;;;;;9.75;6.40;;;;;;;3.90;100.00;102697.22;7399256;19;20501;-66
2022/01/23 08:51:51;;;;;;;13.45;6.80;;;;;;;3.91;100.00;102694.66;7398789;19;20018;-66
2022/01/23 08:54:19;;;;;;;12.85;6.35;;;;;;;3.93;100.00;102707.72;7399374;19;20042;-66
2022/01/23 08:56:48;;;;;;;11.45;7.55;;;;;;;3.95;100.00;102707.78;7398541;19;20019;-66
2022/01/23 08:59:16;;;;;;;11.30;6.75;;;;;;;3.97;100.00;102703.50;7397702;19;20518;-65
2022/01/23 09:01:44;;;;;;;13.25;6.93;;;;;;;3.99;100.00;102707.06;7398891;19;20365;-66
2022/01/23 09:04:15;;;;;;;13.88;7.03;;;;;;;4.02;100.00;102708.06;7399222;19;20394;-66
2022/01/23 09:06:46;;;;;;;11.15;6.75;;;;;;;4.03;100.00;102712.44;7398488;19;20026;-65
2022/01/23 09:09:19;;;;;;;13.27;7.88;;;;;;;4.04;100.00;102705.50;7399210;19;20026;-65
2022/01/23 09:12:02;;;;;;;13.50;8.00;;;;;;;4.04;100.00;102703.81;7399244;19;20033;-65
2022/01/23 09:14:31;;;;;;;15.45;8.27;;;;;;;4.05;100.00;102702.09;7398525;19;20499;-66
2022/01/23 09:16:59;;;;;;;10.50;6.97;;;;;;;4.06;100.00;102704.72;7397580;19;20028;-65
2022/01/23 09:19:29;;;;;;;11.40;6.85;;;;;;;4.06;100.00;102706.47;7394842;19;20052;-65
2022/01/23 09:22:00;;;;;;;13.27;8.40;;;;;;;4.07;100.00;102719.50;7398317;19;20040;-65
2022/01/23 09:24:30;;;;;;;11.07;6.72;;;;;;;4.07;100.00;102722.09;7398075;19;20479;-66
2022/01/23 09:27:02;;;;;;;9.48;6.13;;;;;;;4.08;100.00;102707.38;7397809;19;20019;-66
2022/01/23 09:29:35;;;;;;;11.02;6.32;;;;;;;4.10;100.00;102718.72;7398776;19;20331;-66
2022/01/23 09:32:06;;;;;;;9.23;6.05;;;;;;;4.11;100.00;102722.19;7398307;19;20011;-66
2022/01/23 09:34:36;;;;;;;9.88;6.65;;;;;;;4.11;100.00;102722.19;7398511;19;20015;-66
2022/01/23 09:37:09;;;;;;;10.48;5.88;;;;;;;4.12;100.00;102723.97;7397008;19;20418;-67
2022/01/23 09:39:39;;;;;;;12.75;6.97;;;;;;;4.13;100.00;102730.94;7396725;19;20014;-66
2022/01/23 09:42:12;;;;;;;10.27;6.45;;;;;;;4.13;100.00;102742.19;7397550;19;20040;-67
2022/01/23 09:44:43;;;;;;;12.73;7.47;;;;;;;4.13;100.00;102742.19;7398094;19;20020;-67
2022/01/23 09:47:14;;;;;;;28.50;15.73;;;;;;;4.15;100.00;102737.97;7396912;19;20044;-66
2022/01/23 09:49:44;;;;;;;13.80;9.13;;;;;;;4.17;100.00;102744.13;7397587;19;20015;-66
2022/01/23 09:52:17;;;;;;;12.73;8.07;;;;;;;4.20;100.00;102740.75;7395902;19;20031;-66
2022/01/23 09:54:56;;;;;;;11.02;7.55;;;;;;;4.23;100.00;102746.03;7397171;19;20371;-66
2022/01/23 09:57:29;;;;;;;20.88;11.98;;;;;;;4.27;100.00;102745.31;7396224;19;20027;-67
2022/01/23 09:59:59;;;;;;;14.82;9.68;;;;;;;4.29;100.00;102738.47;7396563;19;20014;-66
2022/01/23 10:02:28;;;;;;;23.20;14.68;;;;;;;4.32;100.00;102743.78;7396828;19;20562;-66
2022/01/23 10:04:57;;;;;;;15.77;9.75;;;;;;;4.34;100.00;102744.72;7397268;19;20019;-66
2022/01/23 10:07:29;;;;;;;18.45;11.43;;;;;;;4.36;100.00;102744.75;7395931;19;20011;-66
2022/01/23 10:10:09;;;;;;;14.38;9.00;;;;;;;4.37;100.00;102742.25;7397399;19;20022;-67
2022/01/23 10:12:43;;;;;;;11.68;7.78;;;;;;;4.40;100.00;102734.53;7397025;19;20459;-67
2022/01/23 10:15:13;;;;;;;12.25;7.25;;;;;;;4.42;100.00;102734.59;7397187;19;20014;-67
2022/01/23 10:17:42;;;;;;;13.88;8.18;;;;;;;4.44;100.00;102739.88;7395257;19;20040;-66
2022/01/23 10:20:12;;;;;;;13.43;8.40;;;;;;;4.45;100.00;102745.13;7395651;19;20033;-66
2022/01/23 10:22:48;;;;;;;21.08;12.15;;;;;;;4.47;100.00;102742.56;7396594;19;20036;-67
2022/01/23 10:25:19;;;;;;;20.02;12.35;;;;;;;4.49;100.00;102740.91;7397313;19;20018;-67
2022/01/23 10:27:56;;;;;;;15.82;10.55;;;;;;;4.52;100.00;102734.09;7394971;19;20364;-67
2022/01/23 10:30:28;;;;;;;13.10;8.82;;;;;;;4.57;100.00;102734.25;7395271;19;20497;-67
2022/01/23 10:33:03;;;;;;;11.63;7.55;;;;;;;4.59;100.00;102730.00;7396642;19;20011;-67
2022/01/23 10:35:33;;;;;;;11.07;7.00;;;;;;;4.57;100.00;102710.84;7395620;19;20378;-67
2022/01/23 10:38:14;;;;;;;11.50;6.43;;;;;;;4.62;100.00;102724.03;7394800;19;20019;-67
2022/01/23 10:40:49;;;;;;;9.30;6.28;;;;;;;4.65;100.00;102718.91;7394794;19;20018;-67
2022/01/23 10:48:45;;;;;;;13.27;7.97;;;;;;;4.75;100.00;102717.53;7395608;19;20046;-66
2022/01/23 10:51:31;;;;;;;14.20;8.40;;;;;;;4.76;100.00;102720.16;7395823;19;20011;-68
2022/01/23 10:54:25;;;;;;;13.70;6.68;;;;;;;4.77;100.00;102723.66;7393070;19;20010;-68
2022/01/23 10:57:06;;;;;;;9.27;7.13;;;;;;;4.79;100.00;102735.00;7394817;19;20041;-65
2022/01/23 10:59:42;;;;;;;7.45;5.35;;;;;;;4.79;100.00;102729.78;7395164;19;20502;-67
2022/01/23 11:02:13;;;;;;;8.95;6.45;;;;;;;4.82;100.00;102732.50;7396458;19;20018;-68
2022/01/23 11:04:57;;;;;;;10.95;6.32;;;;;;;4.84;100.00;102733.44;7395562;19;20011;-68
2022/01/23 11:07:26;;;;;;;15.25;8.10;;;;;;;4.85;100.00;102737.81;7394318;19;20037;-67
2022/01/23 11:10:02;;;;;;;8.95;5.65;;;;;;;4.86;100.00;102737.84;7395209;19;20010;-68
2022/01/23 11:17:22;;;;;;;8.45;6.05;;;;;;;4.88;100.00;102731.00;7395647;19;20019;-68
2022/01/23 11:18:33;;;;;;;5.70;4.40;;;;;;;4.89;100.00;102727.56;7392866;19;20427;-67
2022/01/23 11:21:15;;;;;;;5.75;4.63;;;;;;;4.89;100.00;102727.56;7393430;19;20036;-68
2022/01/23 11:23:44;;;;;;;7.78;5.30;;;;;;;4.93;100.00;102733.75;7395194;19;20090;-66
2022/01/23 11:26:16;;;;;;;6.38;5.07;;;;;;;4.97;100.00;102727.81;7394446;19;20011;-67
2022/01/23 11:28:47;;;;;;;5.43;4.25;;;;;;;4.99;100.00;102728.75;7394674;19;20347;-70
2022/01/23 11:31:22;;;;;;;9.55;7.07;;;;;;;5.01;100.00;102729.69;7394916;19;20024;-67
2022/01/23 11:33:51;;;;;;;8.13;4.78;;;;;;;5.04;100.00;102731.50;7393980;19;20518;-67
2022/01/23 11:36:21;;;;;;;8.43;5.78;;;;;;;5.06;100.00;102719.44;7393817;19;20383;-67
2022/01/23 11:38:52;;;;;;;7.60;5.72;;;;;;;5.09;100.00;102721.25;7394950;19;20014;-67
2022/01/23 11:55:32;;;;;;;11.65;6.70;;;;;;;5.25;100.00;102707.03;7402535;19;20011;-67
2022/01/23 11:58:04;;;;;;;10.88;6.72;;;;;;;5.30;100.00;102714.13;7398494;19;20479;-65
2022/01/23 12:00:35;;;;;;;10.77;7.25;;;;;;;5.34;100.00;102720.31;7398875;19;20530;-67
2022/01/23 12:03:12;;;;;;;7.05;4.82;;;;;;;5.37;100.00;102728.22;7401273;19;20010;-68
2022/01/23 12:05:43;;;;;;;3.33;2.72;;;;;;;5.41;100.00;102722.28;7400824;19;20494;-67
2022/01/23 12:08:27;;;;;;;3.10;2.55;;;;;;;5.45;100.00;102724.16;7398224;19;20022;-67
2022/01/23 12:11:37;;;;;;;3.85;3.30;;;;;;;5.52;100.00;102717.41;7400907;19;20029;-67
2022/01/23 12:17:22;;;;;;;13.95;7.82;;;;;;;5.59;100.00;102711.56;7399129;19;20354;-66
2022/01/23 12:19:53;;;;;;;11.38;6.82;;;;;;;5.58;99.81;102708.91;7399973;19;20041;-66
2022/01/23 12:22:32;;;;;;;2.75;2.30;;;;;;;5.55;99.73;102721.00;7400674;19;20019;-67
2022/01/23 12:25:10;;;;;;;2.08;1.98;;;;;;;5.52;98.60;102733.94;7400570;19;20026;-67
2022/01/23 12:27:39;;;;;;;1.77;1.05;;;;;;;5.52;98.11;102730.41;7399017;19;20019;-68
2022/01/23 12:30:33;;;;;;;1.40;1.20;;;;;;;5.49;98.66;102725.13;7400094;19;20018;-67
2022/01/23 12:33:28;;;;;;;1.95;1.40;;;;;;;5.45;97.96;102718.94;7399217;19;20078;-68
2022/01/23 12:36:03;;;;;;;2.05;1.77;;;;;;;5.43;98.57;102724.94;7400002;19;20014;-67
2022/01/23 12:38:35;;;;;;;3.30;1.70;;;;;;;5.41;100.00;102716.19;7400051;19;20094;-68
2022/01/23 12:41:23;;;;;;;2.40;2.10;;;;;;;5.44;100.00;102713.69;7398533;19;20494;-68
2022/01/23 12:43:54;;;;;;;2.55;2.15;;;;;;;5.47;100.00;102713.78;7399799;19;20039;-68
2022/01/23 12:46:27;;;;;;;3.97;2.78;;;;;;;5.50;100.00;102708.69;7399616;19;20018;-70
2022/01/23 12:49:00;;;;;;;2.92;2.60;;;;;;;5.53;100.00;102707.06;7399876;19;20018;-68
2022/01/23 12:51:38;;;;;;;3.05;2.80;;;;;;;5.57;100.00;102708.00;7399948;19;20077;-67
2022/01/23 12:54:32;;;;;;;2.40;1.90;;;;;;;5.57;100.00;102697.59;7397339;19;20412;-68
2022/01/23 12:57:09;;;;;;;3.13;2.35;;;;;;;5.54;99.89;102708.81;7398733;19;20037;-67
2022/01/23 12:59:38;;;;;;;4.15;2.58;;;;;;;5.55;98.81;102699.28;7398414;19;20041;-66
2022/01/23 13:02:14;;;;;;;5.03;3.90;;;;;;;5.52;99.70;102693.97;7399090;19;20019;-68
2022/01/23 13:04:48;;;;;;;3.53;3.03;;;;;;;5.50;100.00;102693.06;7399624;19;20014;-67
2022/01/23 13:07:33;;;;;;;3.05;2.60;;;;;;;5.54;99.73;102702.72;7397994;19;20018;-66
2022/01/23 13:10:22;;;;;;;2.80;2.20;;;;;;;5.54;100.00;102705.31;7399120;19;20010;-68
2022/01/23 13:12:56;;;;;;;4.10;2.33;;;;;;;5.52;99.79;102693.97;7399180;19;20014;-68
2022/01/23 13:18:39;;;;;;;7.40;5.13;;;;;;;5.50;100.00;102698.28;7394233;19;20011;-67
2022/01/23 13:27:04;;;;;;;;;;;;;;;5.41;99.87;102713.59;7398571;19;20099;-67
2022/01/23 13:32:24;;;;;;;3.60;2.28;;;;;;;5.37;100.00;102716.09;7398333;19;20018;-67
2022/01/23 13:34:57;;;;;;;2.63;1.90;;;;;;;5.38;100.00;102716.97;7398253;19;20015;-67
2022/01/23 13:37:31;;;;;;;6.45;3.22;;;;;;;5.37;100.00;102715.19;7397032;19;20019;-66
2022/01/23 13:40:04;;;;;;;3.83;2.00;;;;;;;5.36;100.00;102722.13;7397708;19;20036;-67
2022/01/23 13:42:53;;;;;;;2.58;2.00;;;;;;;5.34;100.00;102726.41;7397941;19;20471;-68
2022/01/23 13:48:32;;;;;;;3.88;2.60;;;;;;;5.30;99.82;102715.88;7395970;19;20483;-66
2022/01/23 13:51:19;;;;;;;3.63;2.30;;;;;;;5.27;99.79;102718.34;7398427;19;20017;-66
2022/01/23 13:59:25;;;;;;;4.15;2.58;;;;;;;5.21;100.00;102711.25;7397528;19;20018;-67
2022/01/23 14:02:06;;;;;;;3.80;2.70;;;;;;;5.19;100.00;102706.00;7396216;19;20014;-66
2022/01/23 14:04:38;;;;;;;3.60;2.10;;;;;;;5.16;100.00;102707.63;7395853;19;20010;-66
2022/01/23 14:07:07;;;;;;;4.35;2.20;;;;;;;5.18;100.00;102716.34;7396431;19;20056;-66